Time;durP1;ratioP1;P1;durP2;ratioP2;P2;SDS_P1;SDS_P2;PMS_P1;PMS_P2;Temp;Humidity;BMP_temperature;BMP_pressure;BME280_temperature;BME280_humidity;BME280_pressure;Samples;Min_cycle;Max_cycle;Signal;HPM_P1;HPM_P2
2021/10/26 00:01:45;;;;;;;41.90;24.75;;;11.40;99.90;;;;;;5075067;28;20095;-69
2021/10/26 00:04:10;;;;;;;43.47;26.23;;;11.40;99.90;;;;;;5076620;28;20124;-69
2021/10/26 00:06:38;;;;;;;43.67;26.13;;;11.40;99.90;;;;;;5076910;28;20070;-69
2021/10/26 00:09:05;;;;;;;44.25;26.80;;;11.40;99.90;;;;;;5075271;28;20024;-68
2021/10/26 00:11:32;;;;;;;40.90;25.45;;;11.40;99.90;;;;;;5076533;28;20077;-69
2021/10/26 00:13:58;;;;;;;47.05;27.85;;;11.40;99.90;;;;;;5076419;28;20020;-68
2021/10/26 00:16:24;;;;;;;49.10;27.15;;;11.30;99.90;;;;;;5075565;28;20012;-69
2021/10/26 00:18:50;;;;;;;48.13;27.42;;;11.40;99.90;;;;;;5076411;28;20020;-68
2021/10/26 00:21:16;;;;;;;45.88;28.08;;;11.30;99.90;;;;;;5076378;28;20097;-69
2021/10/26 00:23:41;;;;;;;49.17;28.10;;;11.40;99.90;;;;;;5076569;28;20143;-68
2021/10/26 00:26:07;;;;;;;40.00;26.88;;;11.40;99.90;;;;;;5076295;28;20032;-69
2021/10/26 00:28:34;;;;;;;41.83;27.25;;;11.40;99.90;;;;;;5074816;28;20499;-69
2021/10/26 00:31:00;;;;;;;42.65;26.92;;;11.40;99.90;;;;;;5076486;28;20565;-69
2021/10/26 00:33:26;;;;;;;45.03;27.40;;;11.40;99.90;;;;;;5076393;28;20428;-70
2021/10/26 00:35:52;;;;;;;42.65;26.85;;;11.40;99.90;;;;;;5076380;28;20378;-69
2021/10/26 00:38:18;;;;;;;43.58;25.58;;;11.40;99.90;;;;;;5076286;28;20046;-69
2021/10/26 00:40:44;;;;;;;39.88;25.05;;;11.40;99.90;;;;;;5076299;28;20416;-69
2021/10/26 00:43:10;;;;;;;41.38;24.77;;;11.40;99.90;;;;;;5074785;28;20025;-69
2021/10/26 00:45:35;;;;;;;37.00;24.02;;;11.40;99.90;;;;;;5075649;28;20039;-69
2021/10/26 00:48:01;;;;;;;38.15;23.10;;;11.40;99.90;;;;;;5075838;28;20081;-69
2021/10/26 00:50:27;;;;;;;41.78;23.58;;;11.40;99.90;;;;;;5075830;28;20103;-68
2021/10/26 00:52:52;;;;;;;33.92;21.67;;;11.40;99.90;;;;;;5075439;28;20059;-69
2021/10/26 00:55:18;;;;;;;38.45;22.20;;;11.50;99.90;;;;;;5075989;28;20032;-69
2021/10/26 00:57:45;;;;;;;35.13;22.40;;;11.40;99.90;;;;;;5075955;28;20012;-69
2021/10/26 01:00:11;;;;;;;31.33;21.13;;;11.40;99.90;;;;;;5091750;28;20082;-70
2021/10/26 01:02:37;;;;;;;38.33;22.65;;;11.50;99.90;;;;;;5075898;28;20036;-68
2021/10/26 01:05:05;;;;;;;39.40;21.27;;;11.40;99.90;;;;;;5075239;28;20024;-69
2021/10/26 01:07:31;;;;;;;33.58;21.00;;;11.50;99.90;;;;;;5074585;28;20020;-69
2021/10/26 01:09:56;;;;;;;39.38;22.33;;;11.40;99.90;;;;;;5075456;28;20103;-70
2021/10/26 01:12:22;;;;;;;35.83;22.85;;;11.40;99.90;;;;;;5075336;28;20035;-70
2021/10/26 01:14:48;;;;;;;36.10;22.20;;;11.40;99.90;;;;;;5073796;28;20099;-68
2021/10/26 01:17:13;;;;;;;31.60;21.27;;;11.40;99.90;;;;;;5075278;28;20072;-68
2021/10/26 01:19:47;;;;;;;33.45;22.65;;;11.40;99.90;;;;;;5073933;28;20082;-69
2021/10/26 01:22:14;;;;;;;35.28;21.55;;;11.40;99.90;;;;;;5075245;28;20013;-68
2021/10/26 01:24:40;;;;;;;36.35;23.73;;;11.40;99.90;;;;;;5075437;28;20107;-69
2021/10/26 01:27:06;;;;;;;40.78;23.17;;;11.40;99.90;;;;;;5075388;28;20052;-68
2021/10/26 01:29:32;;;;;;;36.70;21.88;;;11.40;99.90;;;;;;5075060;28;20058;-68
2021/10/26 01:32:00;;;;;;;40.55;22.92;;;11.40;99.90;;;;;;5074105;28;20029;-68
2021/10/26 01:34:26;;;;;;;34.55;21.23;;;11.40;99.90;;;;;;5074598;28;20020;-68
2021/10/26 01:36:52;;;;;;;34.80;21.80;;;11.40;99.90;;;;;;5074919;28;20031;-68
2021/10/26 01:39:17;;;;;;;39.78;23.38;;;11.40;99.90;;;;;;5074588;28;20024;-69
2021/10/26 01:41:43;;;;;;;33.30;22.30;;;11.40;99.90;;;;;;5074754;28;20032;-69
2021/10/26 01:44:09;;;;;;;38.03;22.35;;;11.40;99.90;;;;;;5073837;28;20466;-69
2021/10/26 01:46:34;;;;;;;35.38;21.95;;;11.40;99.90;;;;;;5074687;28;20444;-69
2021/10/26 01:49:00;;;;;;;34.28;21.80;;;11.50;99.90;;;;;;5073416;28;20060;-69
2021/10/26 01:51:25;;;;;;;33.80;21.17;;;11.40;99.90;;;;;;5073753;28;20020;-69
2021/10/26 01:53:51;;;;;;;36.63;21.40;;;11.40;99.90;;;;;;5072752;28;20511;-69
2021/10/26 01:56:18;;;;;;;32.45;19.35;;;11.40;99.90;;;;;;5072963;28;20119;-69
2021/10/26 01:58:43;;;;;;;31.33;19.70;;;11.50;99.90;;;;;;5074495;28;20096;-69
2021/10/26 02:01:09;;;;;;;31.05;20.02;;;11.50;99.90;;;;;;5072877;28;20108;-68
2021/10/26 02:03:34;;;;;;;28.00;18.77;;;11.50;99.90;;;;;;5074652;28;20060;-69
2021/10/26 02:06:03;;;;;;;33.95;19.40;;;11.40;99.90;;;;;;5073172;28;20028;-69
2021/10/26 02:08:30;;;;;;;32.28;20.23;;;11.50;99.90;;;;;;5073115;28;20075;-69
2021/10/26 02:10:56;;;;;;;31.77;19.40;;;11.40;99.90;;;;;;5073396;28;20021;-69
2021/10/26 02:13:21;;;;;;;36.95;19.33;;;11.40;99.90;;;;;;5074410;28;20036;-69
2021/10/26 02:15:47;;;;;;;29.95;19.58;;;11.40;99.90;;;;;;5074428;28;20029;-69
2021/10/26 02:18:12;;;;;;;33.35;20.27;;;11.40;99.90;;;;;;5074399;28;20031;-70
2021/10/26 02:20:38;;;;;;;28.55;19.23;;;11.40;99.90;;;;;;5073819;28;20036;-69
2021/10/26 02:23:03;;;;;;;28.80;18.80;;;11.40;99.90;;;;;;5073008;28;20027;-69
2021/10/26 02:25:30;;;;;;;31.73;19.85;;;11.50;99.90;;;;;;5074165;28;20078;-69
2021/10/26 02:27:56;;;;;;;35.88;19.77;;;11.50;99.90;;;;;;5056013;28;20032;-69
2021/10/26 02:30:21;;;;;;;34.58;19.55;;;11.50;99.90;;;;;;5073964;28;20029;-69
2021/10/26 02:32:47;;;;;;;33.53;21.90;;;11.50;99.90;;;;;;5074231;28;20063;-68
2021/10/26 02:35:13;;;;;;;36.28;21.63;;;11.50;99.90;;;;;;5072701;28;20035;-69
2021/10/26 02:37:38;;;;;;;33.65;19.90;;;11.50;99.90;;;;;;5074139;28;20024;-69
2021/10/26 02:40:05;;;;;;;35.28;20.55;;;11.50;99.90;;;;;;5073878;28;20470;-69
2021/10/26 02:42:31;;;;;;;33.13;21.08;;;11.50;99.90;;;;;;5089393;28;20374;-69
2021/10/26 02:44:56;;;;;;;33.33;20.50;;;11.50;99.90;;;;;;5074095;28;20017;-69
2021/10/26 02:47:22;;;;;;;30.50;18.92;;;11.50;99.90;;;;;;5073761;28;20039;-69
2021/10/26 02:49:47;;;;;;;38.28;21.10;;;11.50;99.90;;;;;;5074011;28;20082;-70
2021/10/26 02:52:13;;;;;;;33.20;21.20;;;11.50;99.90;;;;;;5072205;28;20077;-70
2021/10/26 02:54:39;;;;;;;35.25;19.83;;;11.50;99.90;;;;;;5072069;28;20127;-68
2021/10/26 02:57:05;;;;;;;32.38;19.70;;;11.50;99.90;;;;;;5072153;28;20158;-68
2021/10/26 02:59:31;;;;;;;34.10;19.25;;;11.60;99.90;;;;;;5073919;28;20074;-69
2021/10/26 03:01:56;;;;;;;37.70;20.05;;;11.60;99.90;;;;;;5073689;28;20024;-68
2021/10/26 03:04:22;;;;;;;36.70;20.27;;;11.60;99.90;;;;;;5073876;28;20021;-68
2021/10/26 03:06:47;;;;;;;30.13;19.42;;;11.60;99.90;;;;;;5072059;28;20033;-68
2021/10/26 03:09:13;;;;;;;33.75;18.23;;;11.60;99.90;;;;;;5073257;28;20020;-68
2021/10/26 03:11:39;;;;;;;29.42;18.88;;;11.60;99.90;;;;;;5073242;28;20036;-68
2021/10/26 03:14:05;;;;;;;30.40;17.98;;;11.50;99.90;;;;;;5073477;28;20465;-68
2021/10/26 03:16:31;;;;;;;29.58;18.08;;;11.50;99.90;;;;;;5073524;28;20021;-68
2021/10/26 03:18:56;;;;;;;30.27;18.92;;;11.50;99.90;;;;;;5071980;28;20413;-69
2021/10/26 03:21:22;;;;;;;29.42;18.40;;;11.50;99.90;;;;;;5073730;28;20016;-69
2021/10/26 03:23:48;;;;;;;30.48;18.90;;;11.50;99.90;;;;;;5073718;28;20071;-69
2021/10/26 03:26:13;;;;;;;33.90;20.65;;;11.50;99.90;;;;;;5073727;28;20427;-68
2021/10/26 03:28:39;;;;;;;34.15;17.90;;;11.50;99.90;;;;;;5073653;28;20482;-68
2021/10/26 03:31:04;;;;;;;35.22;18.85;;;11.50;99.90;;;;;;5073392;28;20494;-70
2021/10/26 03:33:31;;;;;;;32.53;18.95;;;11.50;99.90;;;;;;5072079;28;20082;-68
2021/10/26 03:35:59;;;;;;;31.20;19.60;;;11.50;99.90;;;;;;5073372;28;20107;-68
2021/10/26 03:38:24;;;;;;;32.28;18.48;;;11.60;99.90;;;;;;5077151;28;20462;-70
2021/10/26 03:40:50;;;;;;;34.88;19.85;;;11.50;99.90;;;;;;5075951;28;20032;-69
2021/10/26 03:43:15;;;;;;;37.70;20.20;;;11.50;99.90;;;;;;5076801;28;20036;-69
2021/10/26 03:45:41;;;;;;;34.13;20.20;;;11.60;99.90;;;;;;5075860;28;20024;-69
2021/10/26 03:48:09;;;;;;;35.85;20.38;;;11.60;99.90;;;;;;5077262;28;20104;-69
2021/10/26 03:50:35;;;;;;;38.25;19.58;;;11.60;99.90;;;;;;5092361;28;20482;-69
2021/10/26 03:53:00;;;;;;;34.63;20.63;;;11.60;99.90;;;;;;5076756;28;20049;-69
2021/10/26 03:55:26;;;;;;;35.38;20.70;;;11.60;99.90;;;;;;5075967;28;20103;-69
2021/10/26 03:57:52;;;;;;;37.47;21.40;;;11.60;99.90;;;;;;5077027;28;20031;-69
2021/10/26 04:00:18;;;;;;;36.88;20.77;;;11.60;99.90;;;;;;5092108;28;20115;-70
2021/10/26 04:02:43;;;;;;;35.97;20.58;;;11.60;99.90;;;;;;5076970;28;20446;-70
2021/10/26 04:07:59;;;;;;;46.15;21.58;;;11.60;99.90;;;;;;5076219;28;20079;-69
2021/10/26 04:11:00;;;;;;;37.17;20.85;;;11.60;99.90;;;;;;5076829;28;20021;-69
2021/10/26 04:13:10;;;;;;;39.90;22.58;;;11.60;99.90;;;;;;5075012;28;20032;-69
2021/10/26 04:15:36;;;;;;;40.35;24.40;;;11.60;99.90;;;;;;5076747;28;20036;-69
2021/10/26 04:18:01;;;;;;;44.38;21.63;;;11.60;99.90;;;;;;5076680;28;20054;-69
2021/10/26 04:20:27;;;;;;;36.00;22.85;;;11.60;99.90;;;;;;5076379;28;20351;-69
2021/10/26 04:22:52;;;;;;;37.20;23.10;;;11.60;99.90;;;;;;5076305;28;20077;-69
2021/10/26 04:25:18;;;;;;;42.45;24.13;;;11.60;99.90;;;;;;5075180;28;20465;-68
2021/10/26 04:27:44;;;;;;;51.25;26.15;;;11.60;99.90;;;;;;5075559;28;20024;-69
2021/10/26 04:30:10;;;;;;;46.75;25.35;;;11.60;99.90;;;;;;5074624;28;20141;-70
2021/10/26 04:32:36;;;;;;;47.17;25.63;;;11.60;99.90;;;;;;5074658;28;20041;-70
2021/10/26 04:35:02;;;;;;;41.80;24.05;;;11.60;99.90;;;;;;5074897;28;20078;-68
2021/10/26 04:37:28;;;;;;;42.20;25.92;;;11.60;99.90;;;;;;5076326;28;20032;-69
2021/10/26 04:39:54;;;;;;;44.58;25.75;;;11.60;99.90;;;;;;5074646;28;20466;-68
2021/10/26 04:42:19;;;;;;;42.38;25.70;;;11.60;99.90;;;;;;5076260;28;20130;-68
2021/10/26 04:44:45;;;;;;;47.40;26.35;;;11.60;99.90;;;;;;5075233;28;20056;-68
2021/10/26 04:47:10;;;;;;;41.30;24.10;;;11.60;99.90;;;;;;5075803;28;20032;-68
2021/10/26 04:49:36;;;;;;;44.90;26.13;;;11.70;99.90;;;;;;5075817;28;20036;-68
2021/10/26 04:52:02;;;;;;;48.30;26.65;;;11.60;99.90;;;;;;5075804;28;20029;-68
2021/10/26 04:54:28;;;;;;;54.15;28.33;;;11.60;99.90;;;;;;5075265;28;20559;-68
2021/10/26 04:56:53;;;;;;;51.10;27.55;;;11.60;99.90;;;;;;5058378;28;20017;-69
2021/10/26 04:59:19;;;;;;;51.67;28.70;;;11.60;99.90;;;;;;5075901;28;20020;-68
2021/10/26 05:01:45;;;;;;;48.40;28.88;;;11.60;99.90;;;;;;5075910;28;20024;-69
2021/10/26 05:04:10;;;;;;;45.35;26.80;;;11.60;99.90;;;;;;5075573;28;20512;-68
2021/10/26 05:06:36;;;;;;;52.65;27.83;;;11.60;99.90;;;;;;5075815;28;20374;-68
2021/10/26 05:09:03;;;;;;;46.15;26.05;;;11.50;99.90;;;;;;5075737;28;20111;-68
2021/10/26 05:11:29;;;;;;;51.95;27.77;;;11.50;99.90;;;;;;5075667;28;20033;-68
2021/10/26 05:13:54;;;;;;;51.25;30.10;;;11.50;99.90;;;;;;5075630;28;20370;-69
2021/10/26 05:16:20;;;;;;;52.22;29.95;;;11.50;99.90;;;;;;5074139;28;20091;-69
2021/10/26 05:18:50;;;;;;;50.33;29.13;;;11.50;99.90;;;;;;5074141;28;20024;-69
2021/10/26 05:21:20;;;;;;;53.63;31.40;;;11.40;99.90;;;;;;5075260;28;20021;-68
2021/10/26 05:23:49;;;;;;;55.88;32.38;;;11.40;99.90;;;;;;5075470;28;20524;-69
2021/10/26 05:26:16;;;;;;;59.30;31.77;;;11.40;99.90;;;;;;5075143;28;20432;-69
2021/10/26 05:28:42;;;;;;;59.78;30.42;;;11.40;99.90;;;;;;5056896;28;20055;-68
2021/10/26 05:31:08;;;;;;;64.72;32.65;;;11.40;99.90;;;;;;5075334;28;20374;-68
2021/10/26 05:33:36;;;;;;;62.95;33.00;;;11.30;99.90;;;;;;5074829;28;20478;-69
2021/10/26 05:36:02;;;;;;;70.68;33.45;;;11.30;99.90;;;;;;5074027;28;20029;-70
2021/10/26 05:38:28;;;;;;;60.88;33.85;;;11.20;99.90;;;;;;5075137;28;20025;-70
2021/10/26 05:40:54;;;;;;;63.00;34.53;;;11.20;99.90;;;;;;5073672;28;20519;-71
2021/10/26 05:43:20;;;;;;;63.47;34.50;;;;;;;;;;5075014;28;20522;-68
2021/10/26 05:45:46;;;;;;;65.60;35.28;;;11.10;99.90;;;;;;5074741;28;20035;-69
2021/10/26 05:48:13;;;;;;;67.05;35.35;;;11.10;99.90;;;;;;5073794;28;20065;-69
2021/10/26 05:50:39;;;;;;;65.05;34.85;;;11.00;99.90;;;;;;5074628;28;20031;-69
2021/10/26 05:53:05;;;;;;;67.10;35.65;;;11.10;99.90;;;;;;5072967;28;20048;-69
2021/10/26 05:55:30;;;;;;;75.65;36.50;;;11.10;99.90;;;;;;5072972;28;20020;-69
2021/10/26 05:57:56;;;;;;;81.72;37.60;;;11.00;99.90;;;;;;5072906;28;20442;-69
2021/10/26 06:00:25;;;;;;;72.55;35.58;;;11.00;99.90;;;;;;5072646;28;20363;-68
2021/10/26 06:02:50;;;;;;;70.45;35.92;;;11.00;99.90;;;;;;5074636;28;20017;-69
2021/10/26 06:05:16;;;;;;;86.90;37.00;;;11.00;99.90;;;;;;5074567;28;20024;-70
2021/10/26 06:07:42;;;;;;;76.38;36.47;;;11.00;99.90;;;;;;5073140;28;20172;-69
2021/10/26 06:10:09;;;;;;;80.93;35.58;;;11.00;99.90;;;;;;5055411;28;20024;-70
2021/10/26 06:12:37;;;;;;;67.43;33.33;;;11.00;99.90;;;;;;5075321;28;20033;-69
2021/10/26 06:15:03;;;;;;;66.22;33.45;;;10.90;99.90;;;;;;5092729;28;20047;-68
2021/10/26 06:17:29;;;;;;;61.95;33.50;;;11.00;99.90;;;;;;5092999;28;20419;-68
2021/10/26 06:19:55;;;;;;;67.93;35.92;;;11.00;99.90;;;;;;5094542;28;20028;-69
2021/10/26 06:22:21;;;;;;;64.45;33.60;;;11.00;99.90;;;;;;5074093;28;20025;-69
2021/10/26 06:24:48;;;;;;;65.50;34.38;;;11.00;99.90;;;;;;5074226;28;20029;-68
2021/10/26 06:27:13;;;;;;;63.75;32.85;;;11.00;99.90;;;;;;5090140;28;20028;-69
2021/10/26 06:29:39;;;;;;;61.95;33.63;;;11.10;99.90;;;;;;5083642;28;20407;-68
2021/10/26 06:32:05;;;;;;;63.72;32.70;;;11.20;99.90;;;;;;5074094;28;20028;-68
2021/10/26 06:34:31;;;;;;;61.15;32.08;;;11.20;99.90;;;;;;5082910;28;20108;-69
2021/10/26 06:36:56;;;;;;;58.33;31.67;;;11.50;99.90;;;;;;5075525;28;20043;-69
2021/10/26 06:39:22;;;;;;;63.25;30.67;;;11.20;99.90;;;;;;5079652;28;20539;-69
2021/10/26 06:41:49;;;;;;;53.72;31.40;;;11.30;99.90;;;;;;5078171;28;20055;-69
2021/10/26 06:44:15;;;;;;;52.85;29.65;;;11.30;99.90;;;;;;5086554;28;20024;-69
2021/10/26 06:46:41;;;;;;;61.88;29.25;;;11.40;99.90;;;;;;5091200;28;20385;-69
2021/10/26 06:49:07;;;;;;;61.50;31.23;;;11.40;99.90;;;;;;5091968;28;20020;-68
2021/10/26 06:51:32;;;;;;;52.35;28.83;;;11.40;99.90;;;;;;5089584;28;20055;-69
2021/10/26 06:53:58;;;;;;;49.97;27.45;;;11.50;99.90;;;;;;5079489;28;20051;-70
2021/10/26 06:56:25;;;;;;;57.15;27.88;;;11.50;99.90;;;;;;5062883;28;20045;-70
2021/10/26 06:58:51;;;;;;;49.17;27.58;;;11.50;99.90;;;;;;5079826;28;20016;-70
2021/10/26 07:01:17;;;;;;;53.40;27.73;;;11.50;99.90;;;;;;5084290;28;20031;-70
2021/10/26 07:03:43;;;;;;;52.22;28.33;;;11.60;99.90;;;;;;5082946;28;20028;-70
2021/10/26 07:06:08;;;;;;;51.90;27.52;;;11.60;99.90;;;;;;5083377;28;20037;-70
2021/10/26 07:08:48;;;;;;;53.33;26.23;;;11.60;99.90;;;;;;5077926;28;20058;-70
2021/10/26 07:11:13;;;;;;;49.95;26.42;;;11.60;99.90;;;;;;5096133;28;20033;-70
2021/10/26 07:13:39;;;;;;;53.13;26.90;;;11.70;99.90;;;;;;5087037;28;20036;-70
2021/10/26 07:16:06;;;;;;;45.53;27.48;;;11.70;99.90;;;;;;5085905;28;20024;-70
2021/10/26 07:18:32;;;;;;;50.63;28.13;;;11.70;99.90;;;;;;5058981;28;20020;-70
2021/10/26 07:20:57;;;;;;;53.38;26.92;;;11.70;99.90;;;;;;5078058;28;20035;-69
2021/10/26 07:23:24;;;;;;;50.03;27.50;;;11.70;99.90;;;;;;5084132;28;20028;-70
2021/10/26 07:25:49;;;;;;;46.63;26.45;;;11.80;99.90;;;;;;5083804;28;20090;-71
2021/10/26 07:28:15;;;;;;;43.55;24.67;;;11.80;99.90;;;;;;5079455;28;20024;-69
2021/10/26 07:30:44;;;;;;;48.88;24.95;;;11.80;99.90;;;;;;5081985;28;20462;-71
2021/10/26 07:33:18;;;;;;;46.30;25.38;;;11.80;99.90;;;;;;5093830;28;20059;-70
2021/10/26 07:35:45;;;;;;;47.50;23.95;;;11.80;99.90;;;;;;5092586;28;20096;-69
2021/10/26 07:38:12;;;;;;;46.15;24.42;;;11.90;99.90;;;;;;5095422;28;20020;-71
2021/10/26 07:40:37;;;;;;;43.17;23.05;;;11.90;99.90;;;;;;5094731;28;20012;-70
2021/10/26 07:43:04;;;;;;;40.53;22.88;;;11.90;99.90;;;;;;5087756;28;20492;-71
2021/10/26 07:45:29;;;;;;;43.25;23.13;;;11.90;99.90;;;;;;5092580;28;20024;-70
2021/10/26 07:47:55;;;;;;;42.60;22.95;;;11.90;99.90;;;;;;5079473;28;20035;-69
2021/10/26 07:50:21;;;;;;;40.47;22.77;;;12.00;99.90;;;;;;5093680;28;20045;-68
2021/10/26 07:52:48;;;;;;;41.47;22.05;;;12.00;99.90;;;;;;5080382;28;20047;-68
2021/10/26 07:55:14;;;;;;;43.78;22.77;;;12.00;99.90;;;;;;5081932;28;20114;-68
2021/10/26 07:57:40;;;;;;;39.20;21.08;;;12.00;99.90;;;;;;5076116;28;20020;-68
2021/10/26 08:00:07;;;;;;;36.15;21.95;;;12.10;99.90;;;;;;5076606;28;20021;-68
2021/10/26 08:02:33;;;;;;;40.13;21.50;;;12.10;99.90;;;;;;5096482;28;20028;-66
2021/10/26 08:05:00;;;;;;;41.38;21.00;;;12.10;99.90;;;;;;5095799;28;20037;-66
2021/10/26 08:07:26;;;;;;;42.55;22.23;;;12.10;99.90;;;;;;5086195;28;20032;-66
2021/10/26 08:09:53;;;;;;;36.42;21.38;;;12.10;99.90;;;;;;5087345;28;20074;-70
2021/10/26 08:12:20;;;;;;;49.83;23.40;;;12.10;99.90;;;;;;5092776;28;20036;-70
2021/10/26 08:14:47;;;;;;;42.22;21.30;;;12.10;99.90;;;;;;5086426;28;20085;-70
2021/10/26 08:17:13;;;;;;;41.10;21.58;;;12.10;99.90;;;;;;5089039;28;20016;-70
2021/10/26 08:19:40;;;;;;;40.97;22.10;;;12.10;99.90;;;;;;5096220;28;20020;-70
2021/10/26 08:22:11;;;;;;;39.60;20.48;;;12.10;99.90;;;;;;5087437;28;20034;-70
2021/10/26 08:24:38;;;;;;;38.38;20.77;;;12.20;99.90;;;;;;5077301;28;20029;-70
2021/10/26 08:27:07;;;;;;;35.92;19.92;;;12.20;99.90;;;;;;5085882;28;20111;-70
2021/10/26 08:32:55;;;;;;;40.40;19.67;;;12.30;99.90;;;;;;5079851;28;20024;-70
2021/10/26 08:35:36;;;;;;;36.78;19.58;;;12.40;99.90;;;;;;5090347;28;20085;-70
2021/10/26 08:37:54;;;;;;;28.58;16.73;;;12.40;99.90;;;;;;5080823;28;20123;-70
2021/10/26 08:40:20;;;;;;;27.52;15.15;;;12.40;99.90;;;;;;5086441;28;20020;-71
2021/10/26 08:42:48;;;;;;;26.92;14.60;;;12.40;99.90;;;;;;5075777;28;20524;-71
2021/10/26 08:45:15;;;;;;;30.15;14.98;;;12.40;99.90;;;;;;5093763;28;20393;-71
2021/10/26 08:47:41;;;;;;;25.63;13.52;;;12.40;99.90;;;;;;5095687;28;20016;-71
2021/10/26 08:50:07;;;;;;;39.08;17.58;;;12.50;99.90;;;;;;5093595;28;20072;-71
2021/10/26 08:52:33;;;;;;;69.72;39.00;;;12.50;99.90;;;;;;5088093;28;20024;-71
2021/10/26 08:55:00;;;;;;;25.65;14.52;;;12.50;99.90;;;;;;5082829;28;20039;-71
2021/10/26 08:57:27;;;;;;;31.65;14.93;;;12.60;99.90;;;;;;5094833;28;20385;-71
2021/10/26 08:59:57;;;;;;;28.33;15.07;;;12.60;99.90;;;;;;5080723;28;20035;-71
2021/10/26 09:02:46;;;;;;;25.00;13.15;;;12.60;99.90;;;;;;5095439;28;20031;-71
2021/10/26 09:05:16;;;;;;;23.10;12.23;;;12.80;99.90;;;;;;5090141;28;20022;-71
2021/10/26 09:07:58;;;;;;;19.67;12.00;;;13.10;99.90;;;;;;5084086;28;20372;-71
2021/10/26 09:10:26;;;;;;;30.98;12.43;;;13.50;99.90;;;;;;5095153;28;20064;-71
2021/10/26 09:18:41;;;;;;;27.08;14.55;;;13.50;99.90;;;;;;5090799;28;20120;-70
2021/10/26 09:21:30;;;;;;;27.92;15.18;;;13.60;99.90;;;;;;5095226;28;20020;-70
2021/10/26 09:23:58;;;;;;;22.33;13.25;;;14.20;99.90;;;;;;5081492;28;20028;-71
2021/10/26 09:26:26;;;;;;;22.92;11.90;;;14.90;99.90;;;;;;5106549;28;20452;-71
2021/10/26 09:28:55;;;;;;;18.27;11.95;;;15.80;99.90;;;;;;5079301;28;20056;-71
2021/10/26 09:31:28;;;;;;;18.75;11.10;;;15.90;99.90;;;;;;5075853;28;20024;-71
2021/10/26 09:34:00;;;;;;;21.17;11.95;;;16.30;99.90;;;;;;5073307;28;20531;-71
2021/10/26 09:36:28;;;;;;;20.98;10.88;;;16.10;99.90;;;;;;5090439;28;20027;-71
2021/10/26 09:39:13;;;;;;;18.60;12.32;;;16.20;99.90;;;;;;5093477;28;20107;-71
2021/10/26 09:42:01;;;;;;;21.27;11.82;;;16.10;99.90;;;;;;5086309;28;20050;-71
2021/10/26 09:44:29;;;;;;;20.17;12.40;;;16.50;99.90;;;;;;5081580;28;20025;-71
2021/10/26 09:46:58;;;;;;;22.48;12.65;;;16.60;99.90;;;;;;5074247;28;20026;-70
2021/10/26 09:49:29;;;;;;;23.85;13.68;;;16.10;99.90;;;;;;5085363;28;20020;-71
2021/10/26 09:52:18;;;;;;;25.15;13.45;;;15.50;99.90;;;;;;5091702;28;20028;-71
2021/10/26 09:54:58;;;;;;;20.20;11.43;;;15.60;99.90;;;;;;5076424;28;20032;-71
2021/10/26 09:57:33;;;;;;;20.48;11.40;;;15.90;99.90;;;;;;5081322;28;20024;-71
2021/10/26 10:00:00;;;;;;;20.23;10.75;;;15.70;99.90;;;;;;5091782;28;20549;-70
2021/10/26 10:02:26;;;;;;;17.60;10.00;;;15.70;99.90;;;;;;5082140;28;20028;-65
2021/10/26 10:04:55;;;;;;;16.25;8.75;;;16.10;99.90;;;;;;5084063;28;20024;-66
2021/10/26 10:07:36;;;;;;;17.23;9.45;;;16.10;99.90;;;;;;5088839;28;20024;-66
2021/10/26 10:10:11;;;;;;;17.67;10.73;;;15.70;99.90;;;;;;5090958;28;20035;-66
2021/10/26 11:15:23;;;;;;;13.45;5.10;;;14.10;99.90;;;;;;5148557;23;20093;-76
2021/10/26 11:17:50;;;;;;;13.40;5.00;;;13.90;99.90;;;;;;4992850;28;20527;-74
2021/10/26 11:34:01;;;;;;;9.23;4.10;;;14.20;99.90;;;;;;6252323;21;1162335;-75
2021/10/26 11:36:32;;;;;;;8.88;4.10;;;14.40;99.90;;;;;;6284825;22;20522;-75
2021/10/26 11:39:01;;;;;;;10.15;4.68;;;14.40;99.90;;;;;;6285494;22;20035;-75
2021/10/26 11:41:33;;;;;;;8.75;4.15;;;14.50;99.90;;;;;;6232963;22;20030;-76
2021/10/26 11:44:04;;;;;;;11.23;4.15;;;14.40;99.90;;;;;;6285509;22;19999;-75
2021/10/26 11:46:34;;;;;;;13.80;4.38;;;14.40;99.90;;;;;;6233598;22;20334;-76
2021/10/26 11:49:07;;;;;;;11.95;3.70;;;14.40;99.90;;;;;;6285519;22;20424;-75
2021/10/26 11:51:42;;;;;;;5.90;3.30;;;14.30;99.90;;;;;;6283582;22;20011;-75
2021/10/26 11:54:19;;;;;;;11.70;3.90;;;14.50;99.90;;;;;;6284715;22;20008;-75
2021/10/26 11:56:49;;;;;;;11.52;3.45;;;14.80;99.90;;;;;;6284887;22;20006;-75
2021/10/26 11:59:17;;;;;;;9.27;3.58;;;15.00;99.90;;;;;;6283710;22;20003;-75
2021/10/26 12:02:05;;;;;;;8.52;3.40;;;15.20;99.90;;;;;;6283580;22;20049;-75
2021/10/26 12:04:35;;;;;;;8.05;3.08;;;15.30;99.90;;;;;;6285401;22;20003;-73
2021/10/26 12:07:19;;;;;;;7.82;2.83;;;15.30;99.90;;;;;;6284731;22;20429;-74
2021/10/26 12:09:48;;;;;;;9.60;3.42;;;15.20;99.90;;;;;;6283947;22;20003;-74
2021/10/26 12:12:22;;;;;;;8.05;3.25;;;15.30;99.90;;;;;;6284473;22;20000;-75
2021/10/26 12:14:50;;;;;;;11.65;2.80;;;15.30;99.90;;;;;;6285300;22;20433;-75
2021/10/26 12:17:47;;;;;;;7.97;2.55;;;15.40;99.90;;;;;;6284712;22;20007;-75
2021/10/26 12:20:17;;;;;;;8.65;2.97;;;15.50;99.90;;;;;;6284573;22;20007;-75
2021/10/26 12:22:48;;;;;;;8.35;2.83;;;15.50;99.90;;;;;;6283818;22;20007;-75
2021/10/26 12:25:18;;;;;;;7.22;2.65;;;15.30;99.90;;;;;;6233509;22;20027;-75
2021/10/26 12:27:55;;;;;;;14.20;3.58;;;15.40;99.90;;;;;;6285253;22;19996;-75
2021/10/26 12:30:25;;;;;;;9.40;2.95;;;15.30;99.90;;;;;;6284965;22;19996;-76
2021/10/26 12:33:18;;;;;;;9.32;3.33;;;15.40;99.90;;;;;;6284031;22;20012;-75
2021/10/26 12:35:50;;;;;;;7.70;2.95;;;15.30;99.90;;;;;;6280002;22;20000;-76
2021/10/26 12:38:26;;;;;;;7.80;3.05;;;15.20;99.90;;;;;;6278677;22;20007;-75
2021/10/26 12:40:54;;;;;;;10.18;3.10;;;15.10;99.90;;;;;;6277816;22;20004;-75
2021/10/26 12:43:24;;;;;;;13.30;3.25;;;15.10;99.90;;;;;;6276840;22;20401;-75
2021/10/26 12:45:52;;;;;;;12.25;3.78;;;15.10;99.90;;;;;;6251518;22;20342;-73
2021/10/26 12:48:18;;;;;;;7.32;2.78;;;15.20;99.90;;;;;;6278463;22;20403;-74
2021/10/26 12:50:52;;;;;;;14.32;3.42;;;15.40;99.90;;;;;;6275958;22;20441;-74
2021/10/26 12:53:22;;;;;;;10.38;2.90;;;15.40;99.90;;;;;;6276498;22;20000;-74
2021/10/26 12:55:53;;;;;;;11.45;3.47;;;15.50;99.90;;;;;;6275961;22;20500;-74
2021/10/26 12:58:37;;;;;;;7.95;2.67;;;15.50;99.90;;;;;;6277483;22;20000;-75
2021/10/26 13:01:05;;;;;;;10.38;2.90;;;15.70;99.90;;;;;;6250630;22;20014;-75
2021/10/26 13:03:31;;;;;;;11.80;3.60;;;15.70;99.90;;;;;;6277649;22;19995;-76
2021/10/26 13:06:05;;;;;;;6.55;3.08;;;15.70;99.90;;;;;;6278010;22;20299;-75
2021/10/26 13:08:31;;;;;;;10.38;3.10;;;15.70;99.90;;;;;;6277839;22;20003;-76
2021/10/26 13:10:57;;;;;;;10.82;3.45;;;15.60;99.90;;;;;;6277790;22;20021;-75
2021/10/26 13:13:22;;;;;;;12.18;3.67;;;15.60;99.90;;;;;;6277603;22;20010;-74
2021/10/26 13:15:48;;;;;;;8.80;3.20;;;15.50;99.90;;;;;;6275491;22;20032;-74
2021/10/26 13:18:23;;;;;;;13.55;3.00;;;15.30;99.90;;;;;;6277932;22;20075;-75
2021/10/26 13:20:52;;;;;;;8.30;2.60;;;15.30;99.90;;;;;;6225028;22;20004;-75
2021/10/26 13:23:30;;;;;;;14.10;3.83;;;15.50;99.90;;;;;;6276239;22;20007;-75
2021/10/26 13:26:00;;;;;;;12.88;3.95;;;15.30;99.90;;;;;;6278604;22;20000;-75
2021/10/26 13:28:29;;;;;;;11.32;2.55;;;15.30;99.90;;;;;;6278901;22;20074;-75
2021/10/26 13:54:24;;;;;;;10.98;3.22;;;15.10;99.90;;;;;;6302155;22;1154772;-74
2021/10/26 13:56:51;;;;;;;8.60;2.38;;;15.10;99.90;;;;;;6294890;22;20010;-76
2021/10/26 13:59:16;;;;;;;7.78;2.65;;;15.20;99.90;;;;;;6294062;22;20011;-76
2021/10/26 14:01:44;;;;;;;8.48;2.60;;;15.30;99.90;;;;;;6349090;22;20002;-74
2021/10/26 14:04:11;;;;;;;7.97;2.40;;;15.30;99.90;;;;;;6294567;22;20323;-75
2021/10/26 14:06:38;;;;;;;9.25;2.88;;;15.20;99.90;;;;;;6348145;22;20055;-75
2021/10/26 14:09:05;;;;;;;8.07;2.13;;;15.30;99.90;;;;;;6294919;22;20002;-76
2021/10/26 14:11:31;;;;;;;6.28;2.83;;;15.20;99.90;;;;;;6320052;22;19998;-75
2021/10/26 14:13:56;;;;;;;9.30;2.85;;;15.20;99.90;;;;;;6320213;22;20029;-75
2021/10/26 14:16:23;;;;;;;6.72;2.58;;;15.20;99.90;;;;;;6320014;22;20112;-75
2021/10/26 14:18:50;;;;;;;7.35;2.90;;;15.20;99.90;;;;;;6347621;22;19994;-75
2021/10/26 14:21:16;;;;;;;7.80;2.72;;;15.10;99.90;;;;;;6348258;22;19995;-76
2021/10/26 14:23:42;;;;;;;8.38;3.05;;;15.20;99.90;;;;;;6347647;22;20306;-76
2021/10/26 14:26:09;;;;;;;10.43;2.80;;;15.20;99.90;;;;;;6293832;22;19998;-75